Charleston, SC (29412)

1:21 AM EST on March 06, 2015 (GMT -0500)
Seaside Plantation | Change Station
CLOSE
Current Station
Personal Weather Station
Location: James Island, SC
Elevation: 35 ft
Nearby Weather Stations
Active Advisory: Freeze Watch

Elev 35 ft 32.71 °N, 79.95 °W | Updated 20 seconds ago

Overcast
Overcast
42.7 °F
Feels Like 40 °F
N
4.9
Wind Variable Wind from NNE
Gusts 8.7 mph

Today
High -- | Low -- °F
--% Chance of Precip.
Yesterday
High -- | Low -- °F
Precip. -- in
6:41 AM 6:20 PM
Full, 100% visible
Pressure 30.24 in
Visibility 1.5 miles
Clouds Mostly Cloudy 1000 ft
Overcast 1700 ft
Windchill 40 °F
Dew Point 40 °F
Humidity 90%
Rainfall in
Snow Depth Not available.
UV 0 out of 12
Pollen 9.40 out of 12
Air Quality Not available.
Flu Activity Not available.
METAR KJZI 060615Z AUTO 02015G21KT 1 1/2SM UP BKN010 OVC017 06/05 A3024 RMK A02 P000

More Conditions Fewer Conditions

Pressure 30.24 in
Visibility 1.5 miles
Clouds Mostly Cloudy 1000 ft
Overcast 1700 ft
Windchill 40 °F
Dew Point 40 °F
Humidity 90%
Rainfall in
Snow Depth Not available.
UV 0 out of 12
Pollen 9.40 out of 12
Air Quality Not available.
Flu Activity Not available.
METAR KJZI 060615Z AUTO 02015G21KT 1 1/2SM UP BKN010 OVC017 06/05 A3024 RMK A02 P000

More Conditions Fewer Conditions

10-Day Weather Forecast

Almanac

Astronomy

Mar. 06, 2015 Rise Set
Actual Time
Civil Twilight
Nautical Twilight
Astronomical Twilight
Moon
Length of Visible Light
Length of Day
Tomorrow will be .
, % of the Moon is Illuminated

Today's Extremes

State Highs State Lows

Community

WunderPhotos

Upload Photos

1,803,195 photos uploaded!

WunderBlogs® & News

Nearby

Air Quality

  Air Quality AQ Index Pollutant
Not available.

Snow Depth

Station Depth Elevation

Earthquake Activity

City Distance Mag. Time & Date
Minimum magnitude displayed is 2.5.

Coastal Water Temperatures

Place Temperature

Nearby Weather Stations

Freeze Watch
Statement as of 12:27 AM EST on March 06, 2015

... Freeze watch remains in effect from this evening through
Saturday morning...

* locations... most of southeast South Carolina and southeast
Georgia with the exception of coastal Georgia.

* Temperatures... 28 to 32 degrees.

* Timing... dropping below freezing late Friday evening before
rising above freezing between 8 and 9 am Saturday. Freeze
duration of 5 to 8 hours possible.

* Impacts... freezing temperatures could kill sensitive
vegetation and damage unprotected outdoor plumbing.

Precautionary/preparedness actions...

Be prepared for the potential of freezing temperatures which
could harm sensitive outdoor vegetation and damage unprotected
outdoor plumbing.